createdAt,value
2022-09-15T00:01:56.487Z,61.14
2022-09-15T00:04:56.399Z,61.18
2022-09-15T00:06:56.382Z,61.09
2022-09-15T00:08:56.396Z,60.68
2022-09-15T00:10:56.831Z,60.72
2022-09-15T00:12:57.230Z,60.87
2022-09-15T00:15:57.214Z,60.77
2022-09-15T00:18:56.390Z,60.49
2022-09-15T00:20:57.024Z,59.97
2022-09-15T00:24:00.328Z,59.79
2022-09-15T00:26:56.566Z,59.17
2022-09-15T00:29:56.422Z,60.33
2022-09-15T00:32:56.417Z,59.15
2022-09-15T00:34:56.771Z,59.08
2022-09-15T00:37:56.445Z,59.61
2022-09-15T00:41:04.358Z,58.97
2022-09-15T00:43:56.911Z,59.26
2022-09-15T00:47:15.509Z,60.17
2022-09-15T00:49:59.156Z,59.01
2022-09-15T00:51:56.387Z,58.13
2022-09-15T00:53:56.779Z,58.82
2022-09-15T00:56:56.393Z,58.31
2022-09-15T00:58:56.431Z,58.29
2022-09-15T01:01:56.451Z,58.16
2022-09-15T01:03:56.400Z,59.89
2022-09-15T01:06:56.406Z,58.79
2022-09-15T01:08:56.407Z,58.3
2022-09-15T01:11:56.409Z,58.38
2022-09-15T01:13:56.419Z,59.19
2022-09-15T01:16:55.553Z,58.12
2022-09-15T01:18:56.445Z,58.14
2022-09-15T01:20:56.541Z,58.47
2022-09-15T01:23:56.415Z,58.31
2022-09-15T01:25:56.882Z,59.27
2022-09-15T01:28:56.426Z,58.53
2022-09-15T01:31:56.452Z,58.16
2022-09-15T01:33:56.963Z,58.62
2022-09-15T01:36:56.415Z,57.69
2022-09-15T01:40:56.430Z,58.46
2022-09-15T01:42:57.167Z,59.34
2022-09-15T01:45:56.458Z,58.66
2022-09-15T01:47:56.851Z,59.69
2022-09-15T01:50:56.449Z,59.87
2022-09-15T01:52:56.757Z,58.46
2022-09-15T01:55:56.410Z,58.89
2022-09-15T01:57:56.543Z,59.48
2022-09-15T01:59:57.351Z,59.87
2022-09-15T02:03:56.438Z,60.09
2022-09-15T02:05:56.522Z,60.07
2022-09-15T02:07:57.122Z,60.15
2022-09-15T02:10:56.684Z,60.3
2022-09-15T02:15:56.454Z,59.83
2022-09-15T02:18:56.859Z,58.64
2022-09-15T02:21:56.481Z,59.33
2022-09-15T02:25:56.803Z,59.71
2022-09-15T02:28:56.432Z,58.83
2022-09-15T02:33:56.465Z,58.61
2022-09-15T02:35:56.956Z,59.21
2022-09-15T02:38:56.506Z,59.31
2022-09-15T02:41:56.431Z,59.99
2022-09-15T02:43:57.141Z,59.86
2022-09-15T02:47:56.472Z,59.24
2022-09-15T02:49:56.480Z,59.01
2022-09-15T02:52:56.465Z,59.16
2022-09-15T02:54:56.467Z,58.85
2022-09-15T02:57:55.544Z,59.03
2022-09-15T02:59:56.464Z,58.74
2022-09-15T03:01:56.521Z,59.27
2022-09-15T03:03:56.951Z,59.59
2022-09-15T03:06:56.482Z,58.92
2022-09-15T03:08:56.521Z,60.23
2022-09-15T03:10:57.082Z,60.04
2022-09-15T03:13:56.495Z,60.25
2022-09-15T03:15:57.140Z,59.85
2022-09-15T03:18:57.064Z,59.85
2022-09-15T03:21:56.968Z,59.37
2022-09-15T03:24:56.989Z,59.85
2022-09-15T03:27:56.501Z,60.36
2022-09-15T03:30:57.374Z,60.81
2022-09-15T03:33:56.895Z,60.15
2022-09-15T03:36:56.467Z,60.35
2022-09-15T03:39:56.537Z,60.15
2022-09-15T03:41:56.498Z,59.18
2022-09-15T03:43:56.543Z,60.38
2022-09-15T03:45:56.671Z,60.69
2022-09-15T03:48:56.914Z,60.27
2022-09-15T03:51:56.498Z,60.31
2022-09-15T03:54:00.210Z,61.27
2022-09-15T03:57:00.237Z,61
2022-09-15T04:00:00.226Z,60.97
2022-09-15T04:02:00.386Z,60.97
2022-09-15T04:05:00.215Z,60.98
2022-09-15T04:07:00.227Z,60.52
2022-09-15T04:10:00.237Z,61.25
2022-09-15T04:13:00.211Z,61.34
2022-09-15T04:15:00.241Z,61.31
2022-09-15T04:18:00.200Z,60.41
2022-09-15T04:20:00.245Z,60.77
2022-09-15T04:23:01.037Z,60.94
2022-09-15T04:26:00.245Z,60.19
2022-09-15T04:28:00.247Z,60.32
2022-09-15T04:30:00.259Z,60.82
2022-09-15T04:33:00.201Z,60.37
2022-09-15T04:35:00.203Z,59.56
2022-09-15T04:38:00.232Z,59.7
2022-09-15T04:40:00.357Z,60.26
2022-09-15T04:43:00.202Z,59.19
2022-09-15T04:45:00.217Z,59.11
2022-09-15T04:47:00.315Z,59.15
2022-09-15T04:50:00.271Z,59.16
2022-09-15T04:53:00.199Z,59.06
2022-09-15T04:55:00.217Z,60.4
2022-09-15T04:57:00.232Z,60.04
2022-09-15T05:00:00.261Z,59.81
2022-09-15T05:03:00.221Z,60.26
2022-09-15T05:06:00.254Z,60.91
2022-09-15T05:09:00.213Z,60.95
2022-09-15T05:11:00.268Z,60.28
2022-09-15T05:14:00.226Z,59.74
2022-09-15T05:17:00.217Z,59.48
2022-09-15T05:20:00.886Z,59.07
2022-09-15T05:23:00.223Z,58.29
2022-09-15T05:26:05.180Z,58.18
2022-09-15T05:29:00.258Z,58.83
2022-09-15T05:31:00.339Z,58.06
2022-09-15T05:34:00.222Z,58.03
2022-09-15T05:36:00.254Z,57.64
2022-09-15T05:39:00.307Z,58.35
2022-09-15T05:42:00.232Z,57.99
2022-09-15T05:45:00.263Z,57.68
2022-09-15T05:48:00.231Z,57.8
2022-09-15T05:50:00.255Z,57.9
2022-09-15T05:53:00.250Z,58.44
2022-09-15T05:55:00.273Z,59.21
2022-09-15T05:57:00.255Z,59.28
2022-09-15T05:59:00.330Z,59.33
2022-09-15T06:02:00.290Z,58.58
2022-09-15T06:05:00.268Z,59.2
2022-09-15T06:08:00.253Z,58.92
2022-09-15T06:11:00.294Z,59.26
2022-09-15T06:13:00.864Z,58.52
2022-09-15T06:16:00.298Z,58.31
2022-09-15T06:19:00.279Z,58.14
2022-09-15T06:22:00.250Z,57.55
2022-09-15T06:25:00.263Z,57.67
2022-09-15T06:28:00.246Z,57.29
2022-09-15T06:30:00.279Z,56.91
2022-09-15T06:33:00.224Z,56.59
2022-09-15T06:35:00.233Z,56.77
2022-09-15T06:38:00.256Z,56.28
2022-09-15T06:40:00.377Z,56.23
2022-09-15T06:43:01.323Z,55.99
2022-09-15T06:46:00.347Z,54.71
2022-09-15T06:48:20.554Z,55.97
2022-09-15T06:51:00.272Z,55.64
2022-09-15T06:53:00.274Z,55.62
2022-09-15T06:55:00.261Z,55.14
2022-09-15T06:58:00.240Z,54.77
2022-09-15T07:00:00.290Z,55.3
2022-09-15T07:03:00.344Z,54.61
2022-09-15T07:05:00.262Z,55.36
2022-09-15T07:08:00.520Z,54.32
2022-09-15T07:11:00.263Z,54.9
2022-09-15T07:13:00.254Z,55.55
2022-09-15T07:16:00.301Z,54.59
2022-09-15T07:18:00.316Z,55.03
2022-09-15T07:21:00.264Z,54.52
2022-09-15T07:23:00.258Z,54.2
2022-09-15T07:25:00.295Z,54.43
2022-09-15T07:27:00.245Z,54.98
2022-09-15T07:30:00.280Z,54.87
2022-09-15T07:33:00.261Z,54.39
2022-09-15T07:35:00.309Z,55.28
2022-09-15T07:37:00.317Z,55.27
2022-09-15T07:40:00.398Z,54.67
2022-09-15T07:43:00.305Z,54.54
2022-09-15T07:46:00.373Z,54.25
2022-09-15T07:49:00.298Z,55.36
2022-09-15T07:51:00.310Z,55.27
2022-09-15T07:54:00.256Z,55.2
2022-09-15T07:57:00.279Z,54.57
2022-09-15T07:59:00.321Z,55.07
2022-09-15T08:01:00.620Z,54.46
2022-09-15T08:04:00.304Z,54.68
2022-09-15T08:07:00.309Z,54.29
2022-09-15T08:10:00.289Z,54.6
2022-09-15T08:12:00.292Z,53.42
2022-09-15T08:15:00.325Z,52.67
2022-09-15T08:17:00.330Z,53.77
2022-09-15T08:20:00.398Z,53.03
2022-09-15T08:23:00.329Z,52.3
2022-09-15T08:25:00.316Z,52.62
2022-09-15T08:27:00.364Z,52.64
2022-09-15T08:30:00.281Z,52.48
2022-09-15T08:33:00.293Z,51.58
2022-09-15T08:35:00.349Z,52.1
2022-09-15T08:37:00.874Z,52.69
2022-09-15T08:40:00.359Z,52.5
2022-09-15T08:43:00.270Z,52.82
2022-09-15T08:45:00.280Z,51.85
2022-09-15T08:48:00.307Z,52.98
2022-09-15T08:51:00.317Z,51.39
2022-09-15T08:53:00.333Z,51.43
2022-09-15T08:56:00.270Z,52.74
2022-09-15T08:58:00.319Z,52.5
2022-09-15T09:01:00.284Z,52.21
2022-09-15T09:03:00.312Z,50.81
2022-09-15T09:06:00.280Z,50.7
2022-09-15T09:09:00.272Z,51.51
2022-09-15T09:11:00.316Z,50.09
2022-09-15T09:14:00.253Z,50.39
2022-09-15T09:16:00.277Z,49.74
2022-09-15T09:18:00.274Z,50.09
2022-09-15T09:20:00.290Z,49.05
2022-09-15T09:22:00.288Z,50.78
2022-09-15T09:25:05.868Z,50.95
2022-09-15T09:27:00.319Z,49.67
2022-09-15T09:30:00.344Z,49.15
2022-09-15T09:33:00.282Z,50.71
2022-09-15T09:35:00.315Z,49.46
2022-09-15T09:37:00.329Z,49.2
2022-09-15T09:40:00.418Z,50.18
2022-09-15T09:42:07.475Z,50.91
2022-09-15T09:45:00.293Z,50.93
2022-09-15T09:48:01.691Z,48.7
2022-09-15T09:51:00.274Z,48.61
2022-09-15T09:54:00.331Z,48.77
2022-09-15T09:56:00.320Z,48.93
2022-09-15T09:59:00.298Z,49.24
2022-09-15T10:02:00.299Z,48.89
2022-09-15T10:05:00.326Z,50.48
2022-09-15T10:08:00.487Z,50.72
2022-09-15T10:11:00.286Z,49.11
2022-09-15T10:14:00.350Z,49.05
2022-09-15T10:17:00.348Z,49.43
2022-09-15T10:19:00.327Z,49.14
2022-09-15T10:22:00.319Z,49.25
2022-09-15T10:25:00.330Z,49.53
2022-09-15T10:27:00.343Z,49.55
2022-09-15T10:30:00.331Z,50.6
2022-09-15T10:33:00.315Z,49.65
2022-09-15T10:35:00.325Z,50.13
2022-09-15T10:38:00.340Z,50.82
2022-09-15T10:40:00.473Z,50.13
2022-09-15T10:43:00.304Z,49.93
2022-09-15T10:46:00.423Z,50.34
2022-09-15T10:48:00.364Z,50.09
2022-09-15T10:51:00.333Z,50
2022-09-15T10:53:00.322Z,49.74
2022-09-15T10:56:00.300Z,49.74
2022-09-15T10:58:00.294Z,49.13
2022-09-15T11:00:00.286Z,48.93
2022-09-15T11:03:00.295Z,47.93
2022-09-15T11:05:00.338Z,48.43
2022-09-15T11:07:00.364Z,47.96
2022-09-15T11:10:00.325Z,49.52
2022-09-15T11:13:00.328Z,47.48
2022-09-15T11:15:00.374Z,47.07
2022-09-15T11:18:00.316Z,44.83
2022-09-15T11:21:00.318Z,43.93
2022-09-15T11:23:00.348Z,42.82
2022-09-15T11:25:00.367Z,43.53
2022-09-15T11:28:00.309Z,41.95
2022-09-15T11:30:00.368Z,42.24
2022-09-15T11:33:00.350Z,42.7
2022-09-15T11:36:00.341Z,42.37
2022-09-15T11:38:00.308Z,43.57
2022-09-15T11:40:00.448Z,42.72
2022-09-15T11:43:00.325Z,42.56
2022-09-15T11:45:00.353Z,42.38
2022-09-15T11:48:00.333Z,42.6
2022-09-15T11:50:00.334Z,41.1
2022-09-15T11:52:00.356Z,41.54
2022-09-15T11:55:00.319Z,39.01
2022-09-15T11:57:01.483Z,38.79
2022-09-15T12:00:00.322Z,39.83
2022-09-15T12:02:00.394Z,40.97
2022-09-15T12:04:00.359Z,40.19
2022-09-15T12:10:00.345Z,43.82
2022-09-15T12:12:00.365Z,42.65
2022-09-15T12:14:00.327Z,42.76
2022-09-15T12:17:00.328Z,40.97
2022-09-15T12:19:00.364Z,42.24
2022-09-15T12:22:00.333Z,42.38
2022-09-15T12:24:00.342Z,41.61
2022-09-15T12:27:00.405Z,41.57
2022-09-15T12:30:00.373Z,40.53
2022-09-15T12:32:00.340Z,38.64
2022-09-15T12:35:00.360Z,38.59
2022-09-15T12:38:00.394Z,38.67
2022-09-15T12:41:00.359Z,37.97
2022-09-15T12:43:00.364Z,38.08
2022-09-15T12:46:00.389Z,36.24
2022-09-15T12:48:00.349Z,37.99
2022-09-15T12:51:00.397Z,36.41
2022-09-15T12:54:01.396Z,36.22
2022-09-15T12:56:00.339Z,37.86
2022-09-15T12:58:01.409Z,36.59
2022-09-15T13:00:00.393Z,36.94
2022-09-15T13:03:00.466Z,37.3
2022-09-15T13:06:00.765Z,37.85
2022-09-15T13:09:00.362Z,37.87
2022-09-15T13:11:00.374Z,37.85
2022-09-15T13:14:00.376Z,38.58
2022-09-15T13:16:00.434Z,38.55
2022-09-15T13:19:00.362Z,38.72
2022-09-15T13:21:00.358Z,39.2
2022-09-15T13:24:00.378Z,39.56
2022-09-15T13:27:00.373Z,39.61
2022-09-15T13:30:00.394Z,39.66
2022-09-15T13:33:00.343Z,39.74
2022-09-15T13:35:03.536Z,40.31
2022-09-15T13:38:12.528Z,40.38
2022-09-15T13:40:00.476Z,40.13
2022-09-15T13:42:00.664Z,40.22
2022-09-15T13:45:00.373Z,40.18
2022-09-15T13:47:01.409Z,40.24
2022-09-15T13:50:00.405Z,40.45
2022-09-15T13:53:00.355Z,40.73
2022-09-15T13:56:00.376Z,40.72
2022-09-15T14:01:00.488Z,38.82
2022-09-15T14:04:00.366Z,39.26
2022-09-15T14:06:00.383Z,38.84
2022-09-15T14:09:00.401Z,38.73
2022-09-15T14:11:00.432Z,38.75
2022-09-15T14:14:00.394Z,38.84
2022-09-15T14:17:00.476Z,38.65
2022-09-15T14:20:00.393Z,39.18
2022-09-15T14:22:00.392Z,38.63
2022-09-15T14:25:00.404Z,38.7
2022-09-15T14:28:00.387Z,38.44
2022-09-15T14:31:00.446Z,38.2
2022-09-15T14:34:00.395Z,37.62
2022-09-15T14:36:00.423Z,37.8
2022-09-15T14:39:00.376Z,37.58
2022-09-15T14:41:00.454Z,37.87
2022-09-15T14:44:00.382Z,37.86
2022-09-15T14:47:00.424Z,37.64
2022-09-15T14:50:00.391Z,37.83
2022-09-15T14:53:00.400Z,37.86
2022-09-15T14:55:00.449Z,38.08
2022-09-15T14:57:00.418Z,40.03
2022-09-15T15:00:00.412Z,38.21
2022-09-15T15:03:00.397Z,38.73
2022-09-15T15:05:00.410Z,38.4
2022-09-15T15:08:00.391Z,41.14
2022-09-15T15:10:00.389Z,37.8
2022-09-15T15:13:00.376Z,36.96
2022-09-15T15:15:00.425Z,36.56
2022-09-15T15:18:00.392Z,36.61
2022-09-15T15:21:00.395Z,37.27
2022-09-15T15:23:00.387Z,37.24
2022-09-15T15:26:00.421Z,37.01
2022-09-15T15:28:00.426Z,37.67
2022-09-15T15:30:00.920Z,37.06
2022-09-15T15:33:00.388Z,37.3
2022-09-15T15:35:00.393Z,37.4
2022-09-15T15:37:00.418Z,37.78
2022-09-15T15:40:00.531Z,37.41
2022-09-15T15:43:00.451Z,38.34
2022-09-15T15:46:00.490Z,37.51
2022-09-15T15:48:00.438Z,39.06
2022-09-15T15:51:00.389Z,38.55
2022-09-15T15:53:00.408Z,38.07
2022-09-15T15:55:00.411Z,37.6
2022-09-15T15:58:00.418Z,37.88
2022-09-15T16:00:00.471Z,38.04
2022-09-15T16:03:00.401Z,37.88
2022-09-15T16:06:00.454Z,37.91
2022-09-15T16:08:00.670Z,37.74
2022-09-15T16:11:00.400Z,37.6
2022-09-15T16:14:00.510Z,37.84
2022-09-15T16:17:00.402Z,37.98
2022-09-15T16:19:00.453Z,38.15
2022-09-15T16:22:00.424Z,37.99
2022-09-15T16:24:00.449Z,38.21
2022-09-15T16:26:00.455Z,38.59
2022-09-15T16:29:00.446Z,38.3
2022-09-15T16:32:00.435Z,38.72
2022-09-15T16:35:00.410Z,38.5
2022-09-15T16:38:00.455Z,38.62
2022-09-15T16:41:00.424Z,39.52
2022-09-15T16:44:00.440Z,39.15
2022-09-15T16:46:00.755Z,39.39
2022-09-15T16:49:00.422Z,39.05
2022-09-15T16:51:25.122Z,39.54
2022-09-15T16:54:00.450Z,39.28
2022-09-15T16:56:00.570Z,39.29
2022-09-15T16:59:00.882Z,39.27
2022-09-15T17:02:00.548Z,39.55
2022-09-15T17:04:00.450Z,39.79
2022-09-15T17:07:00.445Z,39.95
2022-09-15T17:10:00.412Z,40.04
2022-09-15T17:12:00.499Z,39.78
2022-09-15T17:15:00.422Z,39.97
2022-09-15T17:18:00.425Z,41.08
2022-09-15T17:20:00.456Z,42.59
2022-09-15T17:23:00.468Z,43.62
2022-09-15T17:26:00.399Z,43.68
2022-09-15T17:29:00.399Z,43.75
2022-09-15T17:31:00.457Z,44.19
2022-09-15T17:34:00.397Z,44.81
2022-09-15T17:36:00.458Z,44.92
2022-09-15T17:39:00.438Z,44.95
2022-09-15T17:44:00.445Z,45.2
2022-09-15T17:47:00.448Z,45.79
2022-09-15T17:50:00.466Z,45.53
2022-09-15T17:52:00.438Z,45.48
2022-09-15T17:54:00.455Z,45.93
2022-09-15T17:57:00.445Z,45.96
2022-09-15T18:00:00.487Z,46.59
2022-09-15T18:02:00.550Z,46.38
2022-09-15T18:05:00.488Z,46.79
2022-09-15T18:07:00.497Z,47.24
2022-09-15T18:10:00.480Z,46.82
2022-09-15T18:12:00.460Z,47.14
2022-09-15T18:15:00.492Z,47.33
2022-09-15T18:18:00.483Z,47.38
2022-09-15T18:20:00.466Z,48.11
2022-09-15T18:23:00.447Z,47.64
2022-09-15T18:26:00.481Z,47.5
2022-09-15T18:29:00.528Z,48.4
2022-09-15T18:31:00.525Z,48.44
2022-09-15T18:34:00.475Z,48.23
2022-09-15T18:36:00.488Z,48.07
2022-09-15T18:38:00.507Z,48.01
2022-09-15T18:40:00.533Z,48.49
2022-09-15T18:43:00.472Z,48.55
2022-09-15T18:45:00.504Z,48.56
2022-09-15T18:48:00.456Z,48.68
2022-09-15T18:51:00.509Z,48.68
2022-09-15T18:54:00.457Z,48.87
2022-09-15T18:56:00.457Z,49.35
2022-09-15T18:58:01.202Z,49.21
2022-09-15T19:01:00.457Z,49.62
2022-09-15T19:03:01.183Z,48.86
2022-09-15T19:06:00.463Z,49.39
2022-09-15T19:08:00.477Z,49.39
2022-09-15T19:11:00.467Z,49.29
2022-09-15T19:14:00.460Z,49.51
2022-09-15T19:16:00.495Z,49.75
2022-09-15T19:18:00.468Z,49.72
2022-09-15T19:20:00.465Z,49.48
2022-09-15T19:23:00.467Z,49.55
2022-09-15T19:25:00.479Z,49.69
2022-09-15T19:28:00.515Z,49.72
2022-09-15T19:31:00.623Z,50.3
2022-09-15T19:34:00.480Z,50.29
2022-09-15T19:37:00.499Z,50.14
2022-09-15T19:40:00.539Z,50.33
2022-09-15T19:42:00.468Z,49.45
2022-09-15T19:44:00.504Z,50.02
2022-09-15T19:47:00.525Z,50.12
2022-09-15T19:50:00.493Z,50.07
2022-09-15T19:53:00.493Z,49.78
2022-09-15T19:55:00.510Z,50.34
2022-09-15T19:58:00.485Z,50.62
2022-09-15T20:00:00.505Z,50.64
2022-09-15T20:02:00.712Z,50.54
2022-09-15T20:05:00.463Z,50.4
2022-09-15T20:07:00.517Z,50.77
2022-09-15T20:10:00.488Z,50.82
2022-09-15T20:13:00.490Z,50.99
2022-09-15T20:15:00.474Z,50.85
2022-09-15T20:18:00.483Z,50.93
2022-09-15T20:21:00.498Z,50.46
2022-09-15T20:23:00.534Z,50.51
2022-09-15T20:26:00.484Z,50.7
2022-09-15T20:29:00.487Z,50.25
2022-09-15T20:31:00.582Z,50.27
2022-09-15T20:34:00.503Z,50.5
2022-09-15T20:37:00.509Z,50.26
2022-09-15T20:39:00.523Z,50
2022-09-15T20:42:00.489Z,50.16
2022-09-15T20:45:00.495Z,50.31
2022-09-15T20:47:00.550Z,50.14
2022-09-15T20:50:00.480Z,50.33
2022-09-15T20:52:00.504Z,50.39
2022-09-15T20:54:00.500Z,50.17
2022-09-15T20:57:00.517Z,50.59
2022-09-15T21:00:00.513Z,50.83
2022-09-15T21:02:00.557Z,50.78
2022-09-15T21:05:00.489Z,50.82
2022-09-15T21:07:00.558Z,50.91
2022-09-15T21:10:00.488Z,50.98
2022-09-15T21:12:00.512Z,50.53
2022-09-15T21:14:00.494Z,51.12
2022-09-15T21:17:00.498Z,50.64
2022-09-15T21:19:00.597Z,50.83
2022-09-15T21:22:00.517Z,51.12
2022-09-15T21:24:00.501Z,51.16
2022-09-15T21:27:00.538Z,51.4
2022-09-15T21:30:00.500Z,50.86
2022-09-15T21:33:00.497Z,50.78
2022-09-15T21:35:00.603Z,50.66
2022-09-15T21:38:00.869Z,50.57
2022-09-15T21:41:00.502Z,50.82
2022-09-15T21:43:00.515Z,50.9
2022-09-15T21:45:00.631Z,51.06
2022-09-15T21:48:00.505Z,50.61
2022-09-15T21:51:00.524Z,51.12
2022-09-15T21:54:00.540Z,51.08
2022-09-15T21:59:00.574Z,50.9
2022-09-15T22:02:00.593Z,50.6
2022-09-15T22:05:00.549Z,50.53
2022-09-15T22:08:04.191Z,50.45
2022-09-15T22:10:00.541Z,50.26
2022-09-15T22:13:00.513Z,49.9
2022-09-15T22:15:00.551Z,50.04
2022-09-15T22:18:00.545Z,49.83
2022-09-15T22:21:00.489Z,49.69
2022-09-15T22:24:00.507Z,49.42
2022-09-15T22:26:00.538Z,49.56
2022-09-15T22:29:00.550Z,49.68
2022-09-15T22:32:00.644Z,49.57
2022-09-15T22:34:04.036Z,49.59
2022-09-15T22:37:00.516Z,49.39
2022-09-15T22:39:00.512Z,49.33
2022-09-15T22:42:00.539Z,48.77
2022-09-15T22:45:00.523Z,48.68
2022-09-15T22:48:00.521Z,48.98
2022-09-15T22:50:00.558Z,49.2
2022-09-15T22:53:00.514Z,48.95
2022-09-15T22:55:00.524Z,48.94
2022-09-15T22:58:00.523Z,48.08
2022-09-15T23:01:00.610Z,47.39
2022-09-15T23:04:00.527Z,47.8
2022-09-15T23:06:00.556Z,47.79
2022-09-15T23:09:00.536Z,47.9
2022-09-15T23:11:00.529Z,47.25
2022-09-15T23:14:00.591Z,47.72
2022-09-15T23:17:00.526Z,47.85
2022-09-15T23:19:00.547Z,47.22
2022-09-15T23:22:00.581Z,46.67
2022-09-15T23:25:00.525Z,47.8
2022-09-15T23:28:00.585Z,47.71
2022-09-15T23:31:00.551Z,47.67
2022-09-15T23:34:00.547Z,47.6
2022-09-15T23:37:00.560Z,47.42
2022-09-15T23:40:00.660Z,47.29
2022-09-15T23:42:00.554Z,47.26
2022-09-15T23:45:00.522Z,47.86
2022-09-15T23:47:00.556Z,47.92
2022-09-15T23:50:00.568Z,47.76
2022-09-15T23:53:00.523Z,48.13
2022-09-15T23:55:00.574Z,47.97
2022-09-15T23:58:00.572Z,48.09
